IGO5119 VIDP-VAAH
Flight info
| Callsign | IGO5119 |
|---|---|
| Flight time | 1h 2m |
| Altitude | 36000 |
| Route | DUDUM7C DUDUM A474 NIKOT R462 UUD UUD1A |
| Aircraft | A320/M-SDE3FGHIRWY/LB1 |
Departure
| Time | 2026-04-26 17:10 |
|---|---|
| Airport | Indira Gandhi International Airport (VIDP) |
Arrival
| Time | 2026-04-26 18:12 |
|---|---|
| Airport | Sardar Vallabh Patel International Airport (VAAH) |
| Time | Latitude | Longitude | Altitude | Speed | Heading |
|---|---|---|---|---|---|
| 2026-04-26 16:51 | 28.55046 | 77.08977 | 751 ft | 0 kts | 242° |
| 2026-04-26 16:57 | 28.55049 | 77.08984 | 747 ft | 2 kts | 242° |
| 2026-04-26 16:58 | 28.55056 | 77.08997 | 747 ft | 3 kts | 242° |
| 2026-04-26 16:58 | 28.55060 | 77.09007 | 746 ft | 3 kts | 239° |
| 2026-04-26 16:58 | 28.55096 | 77.09026 | 746 ft | 3 kts | 156° |
| 2026-04-26 16:59 | 28.55109 | 77.09019 | 748 ft | 1 kts | 148° |
| 2026-04-26 16:59 | 28.55113 | 77.09016 | 747 ft | 0 kts | 148° |
| 2026-04-26 17:01 | 28.55111 | 77.09018 | 748 ft | 2 kts | 148° |
| 2026-04-26 17:01 | 28.55090 | 77.09032 | 748 ft | 5 kts | 148° |
| 2026-04-26 17:01 | 28.55059 | 77.09053 | 747 ft | 6 kts | 149° |
| 2026-04-26 17:01 | 28.55030 | 77.09074 | 749 ft | 5 kts | 146° |
| 2026-04-26 17:02 | 28.55021 | 77.09080 | 750 ft | 0 kts | 147° |
| 2026-04-26 17:04 | 28.55020 | 77.09081 | 751 ft | 1 kts | 147° |
| 2026-04-26 17:05 | 28.54989 | 77.09104 | 747 ft | 7 kts | 147° |
| 2026-04-26 17:05 | 28.54941 | 77.09135 | 748 ft | 9 kts | 149° |
| 2026-04-26 17:05 | 28.54882 | 77.09175 | 749 ft | 11 kts | 150° |
| 2026-04-26 17:05 | 28.54784 | 77.09183 | 749 ft | 16 kts | 195° |
| 2026-04-26 17:06 | 28.54698 | 77.09233 | 751 ft | 16 kts | 100° |
| 2026-04-26 17:06 | 28.54669 | 77.09366 | 749 ft | 18 kts | 104° |
| 2026-04-26 17:06 | 28.54637 | 77.09514 | 749 ft | 20 kts | 105° |
| 2026-04-26 17:06 | 28.54599 | 77.09672 | 750 ft | 22 kts | 105° |
| 2026-04-26 17:07 | 28.54559 | 77.09843 | 750 ft | 23 kts | 104° |
| 2026-04-26 17:07 | 28.54517 | 77.10026 | 750 ft | 25 kts | 105° |
| 2026-04-26 17:07 | 28.54474 | 77.10219 | 752 ft | 26 kts | 105° |
| 2026-04-26 17:07 | 28.54426 | 77.10421 | 751 ft | 27 kts | 105° |
| 2026-04-26 17:08 | 28.54377 | 77.10633 | 748 ft | 28 kts | 105° |
| 2026-04-26 17:08 | 28.54324 | 77.10856 | 750 ft | 30 kts | 105° |
| 2026-04-26 17:08 | 28.54272 | 77.10961 | 749 ft | 13 kts | 163° |
| 2026-04-26 17:08 | 28.54174 | 77.10946 | 746 ft | 15 kts | 192° |
| 2026-04-26 17:09 | 28.54141 | 77.10879 | 751 ft | 9 kts | 284° |
| 2026-04-26 17:09 | 28.54165 | 77.10771 | 748 ft | 41 kts | 284° |
| 2026-04-26 17:09 | 28.54343 | 77.09944 | 752 ft | 117 kts | 284° |
| 2026-04-26 17:09 | 28.54575 | 77.08876 | 751 ft | 158 kts | 284° |
| 2026-04-26 17:10 | 28.54849 | 77.07566 | 1012 ft | 173 kts | 285° |
| 2026-04-26 17:10 | 28.55148 | 77.06246 | 1599 ft | 171 kts | 286° |
| 2026-04-26 17:10 | 28.55306 | 77.04915 | 2170 ft | 175 kts | 263° |
| 2026-04-26 17:10 | 28.54723 | 77.03655 | 2555 ft | 194 kts | 228° |
| 2026-04-26 17:11 | 28.53428 | 77.02895 | 2684 ft | 222 kts | 203° |
| 2026-04-26 17:11 | 28.51891 | 77.02306 | 2814 ft | 246 kts | 202° |
| 2026-04-26 17:11 | 28.50192 | 77.01650 | 3031 ft | 269 kts | 202° |
| 2026-04-26 17:11 | 28.48374 | 77.00946 | 3537 ft | 280 kts | 202° |
| 2026-04-26 17:12 | 28.44636 | 76.99500 | 4901 ft | 287 kts | 202° |
| 2026-04-26 17:12 | 28.42735 | 76.98755 | 5614 ft | 289 kts | 202° |
| 2026-04-26 17:13 | 28.38786 | 76.97190 | 6413 ft | 321 kts | 201° |
| 2026-04-26 17:13 | 28.36625 | 76.96331 | 6767 ft | 334 kts | 201° |
| 2026-04-26 17:13 | 28.32183 | 76.94573 | 8018 ft | 341 kts | 201° |
| 2026-04-26 17:14 | 28.29936 | 76.93686 | 8674 ft | 343 kts | 201° |
| 2026-04-26 17:14 | 28.25418 | 76.91830 | 9958 ft | 347 kts | 207° |
| 2026-04-26 17:14 | 28.23358 | 76.90419 | 10563 ft | 346 kts | 219° |
| 2026-04-26 17:15 | 28.19536 | 76.87034 | 11767 ft | 351 kts | 220° |
| 2026-04-26 17:15 | 28.17605 | 76.85324 | 12355 ft | 354 kts | 220° |
| 2026-04-26 17:15 | 28.15657 | 76.83600 | 12950 ft | 356 kts | 220° |
| 2026-04-26 17:16 | 28.13694 | 76.81865 | 13538 ft | 359 kts | 220° |
| 2026-04-26 17:16 | 28.11716 | 76.80119 | 14052 ft | 362 kts | 220° |
| 2026-04-26 17:16 | 28.09724 | 76.78358 | 14570 ft | 364 kts | 220° |
| 2026-04-26 17:16 | 28.07720 | 76.76586 | 15089 ft | 367 kts | 220° |
| 2026-04-26 17:17 | 28.05670 | 76.74775 | 15621 ft | 370 kts | 220° |
| 2026-04-26 17:17 | 28.03661 | 76.73003 | 16141 ft | 373 kts | 220° |
| 2026-04-26 17:17 | 28.01581 | 76.71173 | 16668 ft | 375 kts | 220° |
| 2026-04-26 17:17 | 27.99513 | 76.69356 | 17183 ft | 378 kts | 220° |
| 2026-04-26 17:18 | 27.97423 | 76.67524 | 17691 ft | 381 kts | 220° |
| 2026-04-26 17:18 | 27.95317 | 76.65677 | 18173 ft | 384 kts | 220° |
| 2026-04-26 17:18 | 27.93196 | 76.63817 | 18620 ft | 387 kts | 220° |
| 2026-04-26 17:18 | 27.91062 | 76.61942 | 19085 ft | 390 kts | 220° |
| 2026-04-26 17:19 | 27.86758 | 76.58154 | 20008 ft | 395 kts | 220° |
| 2026-04-26 17:19 | 27.84583 | 76.56241 | 20460 ft | 397 kts | 220° |
| 2026-04-26 17:19 | 27.82395 | 76.54322 | 20905 ft | 400 kts | 220° |
| 2026-04-26 17:20 | 27.80183 | 76.52388 | 21343 ft | 403 kts | 220° |
| 2026-04-26 17:20 | 27.79458 | 76.51771 | 21492 ft | 404 kts | 219° |
| 2026-04-26 17:20 | 27.75579 | 76.48711 | 22228 ft | 409 kts | 216° |
| 2026-04-26 17:20 | 27.73188 | 76.46948 | 22650 ft | 412 kts | 215° |
| 2026-04-26 17:21 | 27.70773 | 76.45193 | 23075 ft | 414 kts | 215° |
| 2026-04-26 17:21 | 27.68347 | 76.43422 | 23470 ft | 416 kts | 215° |
| 2026-04-26 17:21 | 27.65923 | 76.41633 | 23828 ft | 418 kts | 216° |
| 2026-04-26 17:21 | 27.63483 | 76.39814 | 24186 ft | 420 kts | 216° |
| 2026-04-26 17:22 | 27.61043 | 76.37981 | 24560 ft | 422 kts | 216° |
| 2026-04-26 17:22 | 27.58598 | 76.36136 | 24932 ft | 424 kts | 216° |
| 2026-04-26 17:22 | 27.56143 | 76.34281 | 25297 ft | 426 kts | 216° |
| 2026-04-26 17:22 | 27.53679 | 76.32424 | 25659 ft | 428 kts | 216° |
| 2026-04-26 17:23 | 27.51193 | 76.30570 | 26016 ft | 430 kts | 216° |
| 2026-04-26 17:23 | 27.48657 | 76.28764 | 26369 ft | 432 kts | 214° |
| 2026-04-26 17:23 | 27.46078 | 76.26994 | 26724 ft | 434 kts | 214° |
| 2026-04-26 17:23 | 27.43481 | 76.25247 | 27073 ft | 436 kts | 213° |
| 2026-04-26 17:24 | 27.40863 | 76.23495 | 27434 ft | 438 kts | 214° |
| 2026-04-26 17:24 | 27.38370 | 76.21536 | 27794 ft | 438 kts | 219° |
| 2026-04-26 17:24 | 27.35932 | 76.19458 | 28158 ft | 440 kts | 220° |
| 2026-04-26 17:24 | 27.33503 | 76.17360 | 28502 ft | 442 kts | 220° |
| 2026-04-26 17:25 | 27.31061 | 76.15234 | 28852 ft | 444 kts | 220° |
| 2026-04-26 17:25 | 27.28583 | 76.13071 | 29175 ft | 447 kts | 220° |
| 2026-04-26 17:25 | 27.26154 | 76.10957 | 29517 ft | 449 kts | 220° |
| 2026-04-26 17:25 | 27.23638 | 76.08778 | 29884 ft | 450 kts | 220° |
| 2026-04-26 17:26 | 27.21162 | 76.06648 | 30289 ft | 449 kts | 220° |
| 2026-04-26 17:26 | 27.18675 | 76.04516 | 30700 ft | 448 kts | 220° |
| 2026-04-26 17:26 | 27.16204 | 76.02398 | 31105 ft | 447 kts | 220° |
| 2026-04-26 17:26 | 27.13736 | 76.00280 | 31504 ft | 446 kts | 220° |
| 2026-04-26 17:27 | 27.11502 | 75.98364 | 31875 ft | 445 kts | 220° |
| 2026-04-26 17:27 | 27.09046 | 75.96257 | 32286 ft | 444 kts | 220° |
| 2026-04-26 17:27 | 27.06600 | 75.94159 | 32686 ft | 443 kts | 220° |
| 2026-04-26 17:27 | 27.04150 | 75.92055 | 33107 ft | 442 kts | 221° |
| 2026-04-26 17:28 | 27.01711 | 75.89957 | 33526 ft | 441 kts | 221° |
| 2026-04-26 17:28 | 26.99277 | 75.87866 | 33916 ft | 440 kts | 221° |
| 2026-04-26 17:28 | 26.96849 | 75.85784 | 34263 ft | 439 kts | 221° |
| 2026-04-26 17:28 | 26.94422 | 75.83711 | 34608 ft | 438 kts | 220° |
| 2026-04-26 17:29 | 26.92002 | 75.81650 | 34957 ft | 437 kts | 220° |
| 2026-04-26 17:29 | 26.91182 | 75.80951 | 35057 ft | 436 kts | 220° |
| 2026-04-26 17:29 | 26.87995 | 75.78229 | 35488 ft | 435 kts | 220° |
| 2026-04-26 17:29 | 26.84785 | 75.75481 | 35752 ft | 434 kts | 220° |
| 2026-04-26 17:30 | 26.80759 | 75.72036 | 35782 ft | 440 kts | 220° |
| 2026-04-26 17:30 | 26.75886 | 75.67875 | 35778 ft | 441 kts | 220° |
| 2026-04-26 17:31 | 26.70967 | 75.63684 | 35780 ft | 441 kts | 220° |
| 2026-04-26 17:31 | 26.66077 | 75.59532 | 35774 ft | 442 kts | 220° |
| 2026-04-26 17:32 | 26.61184 | 75.55372 | 35773 ft | 442 kts | 220° |
| 2026-04-26 17:32 | 26.56289 | 75.51212 | 35778 ft | 442 kts | 220° |
| 2026-04-26 17:33 | 26.51386 | 75.47051 | 35776 ft | 443 kts | 220° |
| 2026-04-26 17:34 | 26.44018 | 75.40822 | 35783 ft | 443 kts | 220° |
| 2026-04-26 17:34 | 26.39106 | 75.36676 | 35787 ft | 443 kts | 220° |
| 2026-04-26 17:35 | 26.34201 | 75.32531 | 35787 ft | 443 kts | 220° |
| 2026-04-26 17:35 | 26.29279 | 75.28368 | 35791 ft | 443 kts | 220° |
| 2026-04-26 17:36 | 26.24326 | 75.24196 | 35787 ft | 443 kts | 220° |
| 2026-04-26 17:36 | 26.19409 | 75.20057 | 35790 ft | 443 kts | 219° |
| 2026-04-26 17:37 | 26.14493 | 75.15917 | 35795 ft | 443 kts | 219° |
| 2026-04-26 17:37 | 26.09569 | 75.11781 | 35793 ft | 443 kts | 219° |
| 2026-04-26 17:38 | 26.02172 | 75.05578 | 35796 ft | 446 kts | 219° |
| 2026-04-26 17:38 | 25.97145 | 75.01365 | 35783 ft | 457 kts | 219° |
| 2026-04-26 17:39 | 25.92046 | 74.97103 | 35782 ft | 460 kts | 219° |
| 2026-04-26 17:39 | 25.86933 | 74.92829 | 35785 ft | 460 kts | 219° |
| 2026-04-26 17:40 | 25.82648 | 74.89243 | 35786 ft | 460 kts | 219° |
| 2026-04-26 17:40 | 25.76655 | 74.84245 | 35789 ft | 461 kts | 219° |
| 2026-04-26 17:41 | 25.71528 | 74.79970 | 35791 ft | 461 kts | 219° |
| 2026-04-26 17:41 | 25.66395 | 74.75697 | 35796 ft | 462 kts | 219° |
| 2026-04-26 17:42 | 25.61250 | 74.71416 | 35801 ft | 462 kts | 219° |
| 2026-04-26 17:42 | 25.56108 | 74.67148 | 35803 ft | 462 kts | 219° |
| 2026-04-26 17:43 | 25.50951 | 74.62875 | 35801 ft | 463 kts | 219° |
| 2026-04-26 17:43 | 25.45797 | 74.58613 | 35808 ft | 463 kts | 219° |
| 2026-04-26 17:44 | 25.40640 | 74.54348 | 35810 ft | 463 kts | 219° |
| 2026-04-26 17:44 | 25.35487 | 74.50076 | 35815 ft | 463 kts | 219° |
| 2026-04-26 17:45 | 25.30320 | 74.45806 | 35816 ft | 463 kts | 219° |
| 2026-04-26 17:45 | 25.25153 | 74.41551 | 35817 ft | 463 kts | 218° |
| 2026-04-26 17:46 | 25.19990 | 74.37300 | 35824 ft | 463 kts | 218° |
| 2026-04-26 17:46 | 25.14823 | 74.33043 | 35824 ft | 463 kts | 218° |
| 2026-04-26 17:47 | 25.10498 | 74.29480 | 35823 ft | 463 kts | 218° |
| 2026-04-26 17:47 | 25.04448 | 74.24513 | 35796 ft | 465 kts | 218° |
| 2026-04-26 17:48 | 24.99273 | 74.20272 | 35797 ft | 467 kts | 218° |
| 2026-04-26 17:48 | 24.94017 | 74.15962 | 35800 ft | 468 kts | 218° |
| 2026-04-26 17:49 | 24.88775 | 74.11672 | 35803 ft | 470 kts | 218° |
| 2026-04-26 17:49 | 24.83528 | 74.07379 | 35818 ft | 471 kts | 218° |
| 2026-04-26 17:50 | 24.78258 | 74.03075 | 35819 ft | 472 kts | 218° |
| 2026-04-26 17:50 | 24.72988 | 73.98766 | 35822 ft | 472 kts | 218° |
| 2026-04-26 17:51 | 24.67704 | 73.94459 | 35821 ft | 473 kts | 218° |
| 2026-04-26 17:51 | 24.65067 | 73.92311 | 35693 ft | 473 kts | 218° |
| 2026-04-26 17:51 | 24.62423 | 73.90158 | 35049 ft | 473 kts | 218° |
| 2026-04-26 17:52 | 24.59772 | 73.88011 | 34303 ft | 475 kts | 217° |
| 2026-04-26 17:52 | 24.57084 | 73.85876 | 33481 ft | 478 kts | 217° |
| 2026-04-26 17:52 | 24.54363 | 73.83752 | 32611 ft | 481 kts | 216° |
| 2026-04-26 17:52 | 24.51621 | 73.81631 | 31764 ft | 482 kts | 216° |
| 2026-04-26 17:53 | 24.48875 | 73.79505 | 30929 ft | 484 kts | 216° |
| 2026-04-26 17:53 | 24.46129 | 73.77371 | 30087 ft | 485 kts | 216° |
| 2026-04-26 17:53 | 24.43378 | 73.75227 | 29235 ft | 484 kts | 216° |
| 2026-04-26 17:54 | 24.37994 | 73.71024 | 28490 ft | 475 kts | 215° |
| 2026-04-26 17:54 | 24.35308 | 73.68924 | 27957 ft | 473 kts | 215° |
| 2026-04-26 17:54 | 24.32627 | 73.66829 | 27431 ft | 471 kts | 215° |
| 2026-04-26 17:54 | 24.29933 | 73.64726 | 26932 ft | 467 kts | 215° |
| 2026-04-26 17:55 | 24.27296 | 73.62667 | 26428 ft | 464 kts | 215° |
| 2026-04-26 17:55 | 24.24649 | 73.60603 | 25942 ft | 470 kts | 215° |
| 2026-04-26 17:55 | 24.21983 | 73.58523 | 25432 ft | 470 kts | 215° |
| 2026-04-26 17:55 | 24.19325 | 73.56451 | 24938 ft | 468 kts | 215° |
| 2026-04-26 17:56 | 24.16681 | 73.54391 | 24425 ft | 465 kts | 215° |
| 2026-04-26 17:56 | 24.11445 | 73.50324 | 23397 ft | 458 kts | 214° |
| 2026-04-26 17:57 | 24.06280 | 73.46318 | 22289 ft | 452 kts | 214° |
| 2026-04-26 17:57 | 24.03730 | 73.44338 | 21759 ft | 448 kts | 215° |
| 2026-04-26 17:57 | 24.01191 | 73.42367 | 21215 ft | 445 kts | 215° |
| 2026-04-26 17:57 | 23.98673 | 73.40417 | 20679 ft | 442 kts | 215° |
| 2026-04-26 17:58 | 23.91232 | 73.34657 | 19068 ft | 432 kts | 215° |
| 2026-04-26 17:59 | 23.86366 | 73.30886 | 17999 ft | 426 kts | 215° |
| 2026-04-26 17:59 | 23.83956 | 73.29023 | 17428 ft | 422 kts | 215° |
| 2026-04-26 17:59 | 23.81564 | 73.27172 | 16905 ft | 419 kts | 215° |
| 2026-04-26 17:59 | 23.79197 | 73.25339 | 16378 ft | 416 kts | 215° |
| 2026-04-26 18:00 | 23.76844 | 73.23523 | 15863 ft | 412 kts | 215° |
| 2026-04-26 18:00 | 23.74509 | 73.21726 | 15348 ft | 409 kts | 214° |
| 2026-04-26 18:00 | 23.72194 | 73.19941 | 14854 ft | 406 kts | 214° |
| 2026-04-26 18:00 | 23.69901 | 73.18171 | 14289 ft | 403 kts | 215° |
| 2026-04-26 18:01 | 23.67629 | 73.16405 | 13721 ft | 399 kts | 215° |
| 2026-04-26 18:01 | 23.65380 | 73.14654 | 13125 ft | 396 kts | 215° |
| 2026-04-26 18:01 | 23.63873 | 73.13480 | 12712 ft | 389 kts | 215° |
| 2026-04-26 18:01 | 23.61731 | 73.11809 | 12164 ft | 369 kts | 215° |
| 2026-04-26 18:02 | 23.59687 | 73.10214 | 11628 ft | 352 kts | 215° |
| 2026-04-26 18:02 | 23.58391 | 73.09202 | 11311 ft | 342 kts | 215° |
| 2026-04-26 18:02 | 23.55870 | 73.07234 | 10747 ft | 323 kts | 216° |
| 2026-04-26 18:02 | 23.54082 | 73.05840 | 10439 ft | 312 kts | 216° |
| 2026-04-26 18:03 | 23.52332 | 73.04479 | 10205 ft | 307 kts | 216° |
| 2026-04-26 18:03 | 23.50608 | 73.03139 | 9980 ft | 302 kts | 216° |
| 2026-04-26 18:03 | 23.48913 | 73.01824 | 9804 ft | 296 kts | 216° |
| 2026-04-26 18:03 | 23.47232 | 73.00549 | 9743 ft | 294 kts | 216° |
| 2026-04-26 18:04 | 23.45545 | 72.99284 | 9747 ft | 295 kts | 216° |
| 2026-04-26 18:04 | 23.43861 | 72.98003 | 9576 ft | 297 kts | 217° |
| 2026-04-26 18:04 | 23.42209 | 72.96635 | 9122 ft | 299 kts | 219° |
| 2026-04-26 18:05 | 23.39027 | 72.93844 | 8261 ft | 287 kts | 221° |
| 2026-04-26 18:05 | 23.37492 | 72.92490 | 7867 ft | 282 kts | 221° |
| 2026-04-26 18:05 | 23.35948 | 72.91135 | 7460 ft | 280 kts | 221° |
| 2026-04-26 18:05 | 23.34455 | 72.89832 | 7040 ft | 278 kts | 221° |
| 2026-04-26 18:06 | 23.32970 | 72.88542 | 6670 ft | 279 kts | 221° |
| 2026-04-26 18:06 | 23.31405 | 72.87185 | 6255 ft | 279 kts | 221° |
| 2026-04-26 18:06 | 23.30171 | 72.86119 | 5900 ft | 273 kts | 221° |
| 2026-04-26 18:06 | 23.28702 | 72.84852 | 5472 ft | 267 kts | 221° |
| 2026-04-26 18:07 | 23.27260 | 72.83611 | 5047 ft | 262 kts | 221° |
| 2026-04-26 18:07 | 23.25838 | 72.82400 | 4582 ft | 259 kts | 218° |
| 2026-04-26 18:07 | 23.24407 | 72.81245 | 4173 ft | 252 kts | 223° |
| 2026-04-26 18:07 | 23.23556 | 72.80413 | 3953 ft | 247 kts | 227° |
| 2026-04-26 18:08 | 23.21963 | 72.78705 | 3549 ft | 233 kts | 228° |
| 2026-04-26 18:08 | 23.20838 | 72.77490 | 3268 ft | 223 kts | 228° |
| 2026-04-26 18:08 | 23.19754 | 72.76327 | 3005 ft | 214 kts | 228° |
| 2026-04-26 18:08 | 23.18717 | 72.75215 | 2738 ft | 206 kts | 228° |
| 2026-04-26 18:09 | 23.17719 | 72.74147 | 2519 ft | 196 kts | 227° |
| 2026-04-26 18:09 | 23.16761 | 72.73120 | 2259 ft | 191 kts | 228° |
| 2026-04-26 18:09 | 23.15831 | 72.72123 | 2022 ft | 184 kts | 227° |
| 2026-04-26 18:09 | 23.14948 | 72.71179 | 1793 ft | 173 kts | 227° |
| 2026-04-26 18:10 | 23.14106 | 72.70277 | 1592 ft | 168 kts | 227° |
| 2026-04-26 18:10 | 23.13281 | 72.69393 | 1382 ft | 165 kts | 227° |
| 2026-04-26 18:10 | 23.12463 | 72.68517 | 1176 ft | 165 kts | 227° |
| 2026-04-26 18:10 | 23.11666 | 72.67664 | 998 ft | 157 kts | 226° |
| 2026-04-26 18:11 | 23.10900 | 72.66843 | 806 ft | 151 kts | 226° |
| 2026-04-26 18:11 | 23.10156 | 72.66050 | 615 ft | 149 kts | 226° |
| 2026-04-26 18:11 | 23.09420 | 72.65257 | 413 ft | 149 kts | 225° |
| 2026-04-26 18:11 | 23.08684 | 72.64474 | 207 ft | 147 kts | 226° |
| 2026-04-26 18:12 | 23.08036 | 72.63778 | 192 ft | 109 kts | 225° |
| 2026-04-26 18:12 | 23.07619 | 72.63334 | 203 ft | 59 kts | 224° |
| 2026-04-26 18:12 | 23.07332 | 72.63025 | 208 ft | 57 kts | 226° |
| 2026-04-26 18:12 | 23.07171 | 72.62754 | 202 ft | 36 kts | 258° |
| 2026-04-26 18:13 | 23.07170 | 72.62576 | 205 ft | 13 kts | 331° |
| 2026-04-26 18:13 | 23.07242 | 72.62506 | 190 ft | 16 kts | 318° |
| 2026-04-26 18:13 | 23.07326 | 72.62418 | 195 ft | 8 kts | 315° |
| 2026-04-26 18:13 | 23.07335 | 72.62409 | 191 ft | 0 kts | 316° |